createdAt,value
2023-03-19T00:00:50.616Z,12.60
2023-03-19T00:03:55.135Z,12.25
2023-03-19T00:06:58.218Z,12.90
2023-03-19T00:10:01.921Z,13.20
2023-03-19T00:13:05.013Z,13.63
2023-03-19T00:16:08.888Z,13.05
2023-03-19T00:19:11.809Z,13.90
2023-03-19T00:22:14.806Z,13.88
2023-03-19T00:25:18.096Z,14.15
2023-03-19T00:28:21.288Z,14.43
2023-03-19T00:31:25.503Z,13.77
2023-03-19T00:34:29.410Z,14.43
2023-03-19T00:37:32.806Z,15.13
2023-03-19T00:40:36.204Z,13.95
2023-03-19T00:43:39.931Z,14.32
2023-03-19T00:46:43.101Z,13.73
2023-03-19T00:49:46.083Z,15.43
2023-03-19T00:52:49.594Z,14.82
2023-03-19T00:55:52.680Z,14.90
2023-03-19T00:58:57.324Z,16.02
2023-03-19T01:02:00.803Z,14.40
2023-03-19T01:05:03.787Z,15.05
2023-03-19T01:08:07.296Z,15.52
2023-03-19T01:11:15.298Z,14.48
2023-03-19T01:14:18.551Z,15.65
2023-03-19T01:17:21.575Z,15.05
2023-03-19T01:20:25.079Z,15.40
2023-03-19T01:23:28.064Z,15.35
2023-03-19T01:26:31.361Z,16.23
2023-03-19T01:29:34.760Z,15.00
2023-03-19T01:32:37.873Z,15.25
2023-03-19T01:35:41.690Z,15.23
2023-03-19T01:38:44.847Z,14.73
2023-03-19T01:41:47.733Z,16.10
2023-03-19T01:44:51.035Z,15.75
2023-03-19T01:47:54.324Z,16.15
2023-03-19T01:50:58.453Z,15.52
2023-03-19T01:54:05.828Z,16.08
2023-03-19T01:57:14.973Z,14.85
2023-03-19T02:00:18.161Z,16.15
2023-03-19T02:03:22.469Z,15.43
2023-03-19T02:06:25.868Z,15.90
2023-03-19T02:09:30.909Z,15.90
2023-03-19T02:12:34.407Z,15.23
2023-03-19T02:15:37.703Z,15.82
2023-03-19T02:18:42.017Z,14.95
2023-03-19T02:21:45.311Z,15.60
2023-03-19T02:24:57.308Z,16.23
2023-03-19T02:28:01.839Z,16.00
2023-03-19T02:31:04.948Z,15.82
2023-03-19T02:34:29.108Z,16.13
2023-03-19T02:37:33.759Z,15.25
2023-03-19T02:40:41.745Z,15.98
2023-03-19T02:43:44.731Z,16.25
2023-03-19T02:46:47.953Z,16.15
2023-03-19T02:49:51.523Z,15.98
2023-03-19T02:52:54.314Z,15.65
2023-03-19T02:55:57.496Z,16.05
2023-03-19T02:59:00.997Z,16.65
2023-03-19T03:02:04.229Z,15.52
2023-03-19T03:05:07.900Z,16.90
2023-03-19T03:08:11.195Z,15.70
2023-03-19T03:11:14.390Z,16.30
2023-03-19T03:14:17.687Z,16.02
2023-03-19T03:17:20.678Z,16.83
2023-03-19T03:20:23.970Z,14.88
2023-03-19T03:23:27.981Z,15.50
2023-03-19T03:26:31.473Z,15.20
2023-03-19T03:29:34.679Z,15.57
2023-03-19T03:32:38.941Z,15.70
2023-03-19T03:35:42.000Z,16.42
2023-03-19T03:38:45.688Z,15.50
2023-03-19T03:41:48.718Z,14.13
2023-03-19T03:44:52.276Z,15.07
2023-03-19T03:47:55.264Z,16.90
2023-03-19T03:50:58.150Z,16.33
2023-03-19T03:54:01.650Z,16.17
2023-03-19T03:57:04.651Z,15.18
2023-03-19T04:00:08.447Z,15.70
2023-03-19T04:03:11.681Z,15.50
2023-03-19T04:06:18.210Z,14.93
2023-03-19T04:09:21.102Z,15.45
2023-03-19T04:12:24.385Z,15.90
2023-03-19T04:15:27.381Z,16.08
2023-03-19T04:18:30.877Z,14.70
2023-03-19T04:21:34.482Z,16.38
2023-03-19T04:24:37.469Z,15.65
2023-03-19T04:27:40.770Z,16.90
2023-03-19T04:30:45.237Z,17.50
2023-03-19T04:33:48.790Z,15.80
2023-03-19T04:36:52.290Z,15.88
2023-03-19T04:39:55.695Z,15.63
2023-03-19T04:42:58.471Z,15.43
2023-03-19T04:46:01.388Z,15.63
2023-03-19T04:49:04.442Z,16.25
2023-03-19T04:52:07.959Z,16.40
2023-03-19T04:55:11.326Z,15.60
2023-03-19T04:58:14.843Z,14.65
2023-03-19T05:01:17.975Z,15.70
2023-03-19T05:04:20.918Z,13.77
2023-03-19T05:07:24.006Z,16.00
2023-03-19T05:10:27.100Z,15.95
2023-03-19T05:13:30.510Z,15.93
2023-03-19T05:16:35.034Z,17.15
2023-03-19T05:19:39.749Z,16.50
2023-03-19T05:22:42.842Z,16.33
2023-03-19T05:25:46.643Z,16.63
2023-03-19T05:28:50.249Z,17.02
2023-03-19T05:31:53.644Z,17.63
2023-03-19T05:34:56.939Z,18.33
2023-03-19T05:37:59.930Z,16.88
2023-03-19T05:41:08.847Z,17.02
2023-03-19T05:44:12.354Z,16.70
2023-03-19T05:47:15.653Z,18.80
2023-03-19T05:50:19.267Z,17.85
2023-03-19T05:53:23.465Z,16.67
2023-03-19T05:56:26.565Z,17.70
2023-03-19T05:59:29.649Z,16.70
2023-03-19T06:02:34.464Z,16.17
2023-03-19T06:05:37.568Z,15.20
2023-03-19T06:08:40.656Z,15.95
2023-03-19T06:11:44.158Z,15.45
2023-03-19T06:14:48.474Z,16.13
2023-03-19T06:17:51.978Z,16.55
2023-03-19T06:20:55.068Z,16.25
2023-03-19T06:23:58.667Z,17.10
2023-03-19T06:27:01.554Z,18.45
2023-03-19T06:30:05.464Z,17.02
2023-03-19T06:33:08.637Z,15.82
2023-03-19T06:36:11.958Z,15.43
2023-03-19T06:39:15.045Z,15.50
2023-03-19T06:42:18.246Z,14.90
2023-03-19T06:45:21.023Z,16.33
2023-03-19T06:48:24.418Z,15.68
2023-03-19T06:51:30.490Z,15.68
2023-03-19T06:54:34.544Z,15.88
2023-03-19T06:57:39.754Z,15.63
2023-03-19T07:00:42.731Z,15.38
2023-03-19T07:03:46.097Z,16.27
2023-03-19T07:06:49.415Z,15.32
2023-03-19T07:09:52.505Z,15.93
2023-03-19T07:12:55.797Z,16.30
2023-03-19T07:15:59.301Z,15.60
2023-03-19T07:19:02.491Z,16.25
2023-03-19T07:22:05.480Z,16.55
2023-03-19T07:25:09.095Z,15.00
2023-03-19T07:28:12.067Z,15.30
2023-03-19T07:31:15.478Z,15.25
2023-03-19T07:34:18.561Z,15.32
2023-03-19T07:37:22.589Z,14.90
2023-03-19T07:40:26.787Z,14.98
2023-03-19T07:43:29.883Z,15.05
2023-03-19T07:46:33.277Z,14.75
2023-03-19T07:49:36.375Z,15.05
2023-03-19T07:52:39.455Z,14.82
2023-03-19T07:55:42.754Z,14.65
2023-03-19T07:58:45.843Z,14.02
2023-03-19T08:01:49.655Z,15.18
2023-03-19T08:04:52.877Z,14.50
2023-03-19T08:07:56.152Z,15.38
2023-03-19T08:10:59.025Z,14.05
2023-03-19T08:14:02.217Z,13.98
2023-03-19T08:17:05.529Z,14.65
2023-03-19T08:20:11.792Z,14.13
2023-03-19T08:23:15.280Z,14.02
2023-03-19T08:26:18.577Z,13.15
2023-03-19T08:29:21.876Z,13.30
2023-03-19T08:32:25.782Z,14.20
2023-03-19T08:35:28.671Z,14.32
2023-03-19T08:38:31.964Z,13.70
2023-03-19T08:41:35.159Z,14.45
2023-03-19T08:44:38.353Z,13.77
2023-03-19T08:47:42.467Z,12.95
2023-03-19T08:50:45.659Z,13.80
2023-03-19T08:53:49.372Z,13.20
2023-03-19T08:56:52.870Z,14.30
2023-03-19T08:59:56.057Z,15.15
2023-03-19T09:02:59.258Z,15.52
2023-03-19T09:06:04.507Z,15.98
2023-03-19T09:09:07.800Z,15.07
2023-03-19T09:12:14.058Z,15.25
2023-03-19T09:15:17.766Z,15.32
2023-03-19T09:18:21.472Z,15.38
2023-03-19T09:21:24.562Z,14.38
2023-03-19T09:24:27.967Z,14.15
2023-03-19T09:27:31.053Z,14.00
2023-03-19T09:30:34.246Z,14.32
2023-03-19T09:33:37.650Z,13.95
2023-03-19T09:36:40.842Z,12.55
2023-03-19T09:39:43.933Z,18.45
2023-03-19T09:43:17.641Z,15.85
2023-03-19T09:46:27.408Z,15.18
2023-03-19T09:49:39.082Z,14.50
2023-03-19T09:52:44.734Z,13.70
2023-03-19T09:55:52.949Z,10.85
2023-03-19T09:58:56.143Z,11.07
2023-03-19T10:02:22.891Z,11.27
2023-03-19T10:06:01.525Z,11.75
2023-03-19T10:09:32.061Z,11.82
2023-03-19T10:13:08.216Z,11.73
2023-03-19T10:16:24.680Z,12.18
2023-03-19T10:19:50.032Z,10.80
2023-03-19T10:23:07.267Z,10.90
2023-03-19T10:26:14.963Z,11.52
2023-03-19T10:29:23.989Z,11.82
2023-03-19T10:32:43.536Z,13.32
2023-03-19T10:35:52.314Z,11.48
2023-03-19T10:38:56.308Z,12.02
2023-03-19T10:42:20.713Z,10.02
2023-03-19T10:45:37.899Z,8.88
2023-03-19T10:48:46.956Z,10.88
2023-03-19T10:51:49.953Z,10.25
2023-03-19T10:55:18.433Z,10.43
2023-03-19T10:58:26.461Z,9.63
2023-03-19T11:01:38.664Z,7.05
2023-03-19T11:04:41.434Z,6.57
2023-03-19T11:07:44.843Z,5.95
2023-03-19T11:10:50.590Z,6.45
2023-03-19T11:13:54.205Z,6.32
2023-03-19T11:17:06.599Z,6.07
2023-03-19T11:20:34.660Z,6.20
2023-03-19T11:23:42.698Z,6.30
2023-03-19T11:26:56.008Z,6.60
2023-03-19T11:29:59.507Z,6.65
2023-03-19T11:33:24.748Z,6.75
2023-03-19T11:36:33.747Z,6.47
2023-03-19T11:39:51.585Z,7.40
2023-03-19T11:43:17.529Z,6.93
2023-03-19T11:46:39.466Z,7.82
2023-03-19T11:50:05.683Z,7.72
2023-03-19T11:53:24.131Z,7.47
2023-03-19T11:56:41.146Z,7.47
2023-03-19T12:00:04.000Z,7.50
2023-03-19T12:03:31.028Z,7.40
2023-03-19T12:06:53.783Z,7.72
2023-03-19T12:10:17.787Z,7.32
2023-03-19T12:13:27.330Z,6.93
2023-03-19T12:17:14.562Z,7.65
2023-03-19T12:20:35.876Z,7.18
2023-03-19T12:23:58.118Z,6.70
2023-03-19T12:27:19.436Z,6.78
2023-03-19T12:30:50.520Z,7.35
2023-03-19T12:34:15.001Z,7.60
2023-03-19T12:37:38.036Z,6.70
2023-03-19T12:40:48.907Z,8.18
2023-03-19T12:44:22.307Z,7.95
2023-03-19T12:47:38.100Z,6.40
2023-03-19T12:50:47.433Z,6.97
2023-03-19T12:53:53.392Z,7.80
2023-03-19T12:57:36.947Z,6.20
2023-03-19T13:01:07.778Z,6.72
2023-03-19T13:04:31.984Z,7.03
2023-03-19T13:07:57.490Z,6.20
2023-03-19T13:11:04.373Z,5.97
2023-03-19T13:14:16.975Z,5.82
2023-03-19T13:17:38.306Z,6.45
2023-03-19T13:20:47.641Z,6.55
2023-03-19T13:27:08.161Z,6.20
2023-03-19T13:30:11.302Z,6.55
2023-03-19T13:33:22.530Z,5.60
2023-03-19T13:36:29.001Z,5.70
2023-03-19T13:39:34.756Z,6.20
2023-03-19T13:42:42.627Z,6.07
2023-03-19T13:45:45.964Z,5.65
2023-03-19T13:48:53.877Z,5.80
2023-03-19T13:52:04.643Z,5.97
2023-03-19T13:55:26.467Z,6.45
2023-03-19T13:58:49.016Z,6.35
2023-03-19T14:01:52.310Z,6.35
2023-03-19T14:05:05.229Z,6.25
2023-03-19T14:08:21.530Z,5.55
2023-03-19T14:11:29.340Z,6.07
2023-03-19T14:14:32.630Z,5.88
2023-03-19T14:17:43.303Z,5.78
2023-03-19T14:20:59.253Z,5.47
2023-03-19T14:28:03.750Z,5.32
2023-03-19T14:31:16.490Z,5.75
2023-03-19T14:34:40.956Z,6.10
2023-03-19T14:37:50.157Z,5.40
2023-03-19T14:40:53.751Z,6.10
2023-03-19T14:44:15.939Z,5.50
2023-03-19T14:47:24.759Z,5.45
2023-03-19T14:50:57.240Z,5.18
2023-03-19T14:54:23.681Z,6.25
2023-03-19T14:57:35.677Z,5.28
2023-03-19T15:00:52.142Z,5.82
2023-03-19T15:03:59.988Z,5.47
2023-03-19T15:07:03.899Z,5.13
2023-03-19T15:10:15.497Z,6.18
2023-03-19T15:13:43.159Z,5.38
2023-03-19T15:17:04.820Z,6.43
2023-03-19T15:20:22.317Z,5.18
2023-03-19T15:23:29.216Z,5.03
2023-03-19T15:26:37.008Z,4.82
2023-03-19T15:29:40.221Z,4.80
2023-03-19T15:33:03.830Z,4.50
2023-03-19T15:36:09.366Z,4.40
2023-03-19T15:39:13.325Z,4.50
2023-03-19T15:42:17.960Z,4.65
2023-03-19T15:45:28.214Z,4.40
2023-03-19T15:49:05.615Z,4.40
2023-03-19T15:52:14.846Z,4.00
2023-03-19T15:55:19.575Z,3.88
2023-03-19T15:58:29.937Z,5.20
2023-03-19T16:01:34.872Z,5.85
2023-03-19T16:05:06.749Z,8.40
2023-03-19T16:08:33.281Z,13.57
2023-03-19T16:11:47.541Z,8.27
2023-03-19T16:14:52.674Z,11.25
2023-03-19T16:18:09.795Z,8.38
2023-03-19T16:21:19.856Z,11.48
2023-03-19T16:24:31.953Z,10.27
2023-03-19T16:27:41.095Z,8.30
2023-03-19T16:33:55.662Z,7.18
2023-03-19T16:37:02.645Z,5.07
2023-03-19T16:40:18.839Z,4.22
2023-03-19T16:43:24.697Z,4.55
2023-03-19T16:46:29.951Z,4.40
2023-03-19T16:49:34.341Z,4.85
2023-03-19T16:52:39.914Z,4.22
2023-03-19T16:55:43.408Z,4.50
2023-03-19T16:58:48.858Z,4.30
2023-03-19T17:01:54.164Z,4.70
2023-03-19T17:04:58.637Z,4.72
2023-03-19T17:08:03.561Z,5.00
2023-03-19T17:11:11.359Z,4.80
2023-03-19T17:14:22.135Z,4.80
2023-03-19T17:17:27.781Z,5.05
2023-03-19T17:20:48.387Z,8.02
2023-03-19T17:23:52.907Z,4.95
2023-03-19T17:26:59.480Z,4.47
2023-03-19T17:30:03.808Z,5.65
2023-03-19T17:33:08.681Z,9.07
2023-03-19T17:36:19.513Z,27.50
2023-03-19T17:39:25.789Z,26.40
2023-03-19T17:42:35.423Z,11.27
2023-03-19T17:45:43.525Z,26.08
2023-03-19T17:48:50.327Z,8.43
2023-03-19T17:51:54.518Z,4.60
2023-03-19T17:55:02.323Z,18.77
2023-03-19T17:58:07.778Z,11.88
2023-03-19T18:01:19.281Z,25.15
2023-03-19T18:04:25.074Z,11.13
2023-03-19T18:07:29.244Z,7.25
2023-03-19T18:10:35.634Z,13.65
2023-03-19T18:13:40.537Z,24.83
2023-03-19T18:16:47.484Z,8.80
2023-03-19T18:19:52.863Z,12.60
2023-03-19T18:22:56.980Z,26.08
2023-03-19T18:26:01.301Z,12.00
2023-03-19T18:29:05.413Z,8.75
2023-03-19T18:32:27.245Z,14.77
2023-03-19T18:35:43.469Z,16.65
2023-03-19T18:38:47.971Z,9.48
2023-03-19T18:41:53.832Z,6.95
2023-03-19T18:44:58.046Z,7.13
2023-03-19T18:48:02.656Z,5.93
2023-03-19T18:51:07.200Z,6.07
2023-03-19T18:54:12.745Z,6.65
2023-03-19T18:57:18.503Z,8.18
2023-03-19T19:00:34.372Z,6.35
2023-03-19T19:03:40.549Z,6.35
2023-03-19T19:06:48.196Z,5.57
2023-03-19T19:09:52.566Z,5.97
2023-03-19T19:12:59.854Z,5.13
2023-03-19T19:16:04.690Z,14.88
2023-03-19T19:19:23.403Z,15.25
2023-03-19T19:22:28.997Z,8.70
2023-03-19T19:25:36.179Z,13.65
2023-03-19T19:28:41.753Z,11.43
2023-03-19T19:31:45.430Z,13.88
2023-03-19T19:34:51.492Z,6.88
2023-03-19T19:37:56.740Z,11.48
2023-03-19T19:41:01.378Z,10.63
2023-03-19T19:44:06.406Z,25.48
2023-03-19T19:47:17.788Z,12.73
2023-03-19T19:50:24.060Z,8.80
2023-03-19T19:53:32.169Z,14.73
2023-03-19T19:56:35.981Z,10.57
2023-03-19T19:59:39.884Z,9.82
2023-03-19T20:02:44.214Z,6.18
2023-03-19T20:05:48.421Z,4.85
2023-03-19T20:08:55.310Z,8.23
2023-03-19T20:11:59.414Z,8.10
2023-03-19T20:15:03.733Z,5.85
2023-03-19T20:18:08.060Z,9.32
2023-03-19T20:21:14.310Z,7.72
2023-03-19T20:24:19.560Z,4.90
2023-03-19T20:27:30.377Z,5.28
2023-03-19T20:30:38.337Z,5.35
2023-03-19T20:33:41.938Z,5.40
2023-03-19T20:36:46.981Z,5.07
2023-03-19T20:39:51.096Z,5.10
2023-03-19T20:46:13.685Z,5.10
2023-03-19T20:49:18.401Z,4.63
2023-03-19T20:52:22.818Z,7.07
2023-03-19T20:55:32.995Z,10.30
2023-03-19T20:58:38.107Z,6.82
2023-03-19T21:01:43.185Z,7.13
2023-03-19T21:04:48.897Z,28.23
2023-03-19T21:07:55.159Z,22.05
2023-03-19T21:10:59.280Z,54.50
2023-03-19T21:14:03.081Z,15.70
2023-03-19T21:17:06.384Z,9.20
2023-03-19T21:20:22.367Z,11.48
2023-03-19T21:23:36.528Z,6.18
2023-03-19T21:26:45.040Z,4.63
2023-03-19T21:29:49.254Z,7.20
2023-03-19T21:32:54.507Z,6.15
2023-03-19T21:35:59.757Z,7.60
2023-03-19T21:39:02.934Z,10.40
2023-03-19T21:42:09.707Z,12.55
2023-03-19T21:45:22.840Z,11.52
2023-03-19T21:48:34.542Z,15.82
2023-03-19T21:51:38.144Z,30.60
2023-03-19T21:54:41.842Z,9.60
2023-03-19T21:57:46.064Z,31.75
2023-03-19T22:00:49.882Z,31.55
2023-03-19T22:03:55.474Z,9.02
2023-03-19T22:06:58.915Z,12.40
2023-03-19T22:10:02.105Z,8.20
2023-03-19T22:13:06.534Z,8.30
2023-03-19T22:16:18.556Z,13.77
2023-03-19T22:19:22.239Z,8.70
2023-03-19T22:22:25.528Z,8.18
2023-03-19T22:25:32.854Z,8.77
2023-03-19T22:28:36.855Z,6.30
2023-03-19T22:31:41.483Z,6.05
2023-03-19T22:34:44.972Z,6.07
2023-03-19T22:37:48.156Z,6.22
2023-03-19T22:40:54.013Z,7.53
2023-03-19T22:43:59.253Z,13.38
2023-03-19T22:47:02.858Z,7.68
2023-03-19T22:50:11.080Z,8.93
2023-03-19T22:53:31.158Z,8.82
2023-03-19T22:56:34.155Z,15.02
2023-03-19T22:59:37.446Z,17.52
2023-03-19T23:02:41.863Z,9.50
2023-03-19T23:05:48.744Z,10.77
2023-03-19T23:08:51.730Z,16.02
2023-03-19T23:11:54.935Z,8.80
2023-03-19T23:14:57.814Z,26.30
2023-03-19T23:18:02.537Z,9.05
2023-03-19T23:21:05.949Z,9.40
2023-03-19T23:24:13.635Z,13.07
2023-03-19T23:27:27.067Z,11.20
2023-03-19T23:30:32.879Z,11.73
2023-03-19T23:33:35.805Z,10.82
2023-03-19T23:36:38.902Z,13.25
2023-03-19T23:39:45.270Z,9.65
2023-03-19T23:42:52.561Z,7.70
2023-03-19T23:45:56.817Z,7.38
2023-03-19T23:49:00.383Z,13.30
2023-03-19T23:52:05.619Z,7.50
2023-03-19T23:55:09.736Z,9.35
2023-03-19T23:58:12.618Z,10.25
